Time;durP1;ratioP1;P1;durP2;ratioP2;P2;SDS_P1;SDS_P2;PMS_P1;PMS_P2;Temp;Humidity;BMP_temperature;BMP_pressure;BME280_temperature;BME280_humidity;BME280_pressure;Samples;Min_cycle;Max_cycle;Signal;HPM_P1;HPM_P2
2022/01/03 00:06:24;;;;;;;9.43;4.60;;;;;;;11.60;100.00;98914.34;713918;1200;113777;-83
2022/01/03 00:21:33;;;;;;;11.27;5.07;;;;;;;11.30;100.00;98916.02;713904;1203;114140;-83
2022/01/03 00:36:37;;;;;;;6.33;3.38;;;;;;;11.14;100.00;98932.67;713997;1200;114160;-83
2022/01/03 00:51:39;;;;;;;3.85;2.48;;;;;;;10.68;100.00;98949.09;713991;1199;113512;-83
2022/01/03 01:06:41;;;;;;;4.10;2.30;;;;;;;10.42;100.00;98936.20;714014;1199;114091;-82
2022/01/03 01:21:44;;;;;;;2.78;1.70;;;;;;;10.38;100.00;98937.52;714176;1174;114359;-83
2022/01/03 01:36:46;;;;;;;4.75;3.05;;;;;;;10.16;100.00;98945.88;714043;1177;114712;-90
2022/01/03 01:51:57;;;;;;;2.67;1.23;;;;;;;10.01;100.00;98937.03;718249;1177;113850;-90
2022/01/03 02:07:34;;;;;;;2.83;1.53;;;;;;;9.86;100.00;98944.73;714767;1203;112826;-90
2022/01/03 02:22:41;;;;;;;1.85;1.48;;;;;;;9.85;100.00;98937.86;714446;1176;113353;-84
2022/01/03 02:37:45;;;;;;;3.05;1.50;;;;;;;9.85;100.00;98939.67;714488;1176;113800;-90
2022/01/03 02:52:48;;;;;;;4.85;2.50;;;;;;;9.80;100.00;98955.86;714368;1200;113501;-90
2022/01/03 03:07:53;;;;;;;3.75;1.85;;;;;;;9.87;100.00;98940.30;715846;1193;113972;-90
2022/01/03 03:22:58;;;;;;;4.67;1.40;;;;;;;9.93;100.00;98937.04;714597;1180;113426;-90
2022/01/03 03:38:01;;;;;;;2.00;1.23;;;;;;;9.90;100.00;98947.86;714351;1199;114087;-89
2022/01/03 03:53:04;;;;;;;3.73;2.23;;;;;;;9.97;100.00;98946.20;714566;1200;113334;-90
2022/01/03 04:08:06;;;;;;;4.47;1.30;;;;;;;10.03;100.00;98965.68;714437;1199;114433;-89
2022/01/03 04:23:08;;;;;;;3.30;1.80;;;;;;;10.02;100.00;98971.90;714525;1177;113672;-89
2022/01/03 04:38:10;;;;;;;145.28;41.30;;;;;;;9.93;100.00;98976.34;715229;1200;113606;-89
2022/01/03 04:53:12;;;;;;;19.48;8.20;;;;;;;9.98;100.00;98971.43;714935;1200;114868;-92
2022/01/03 05:08:18;;;;;;;6.77;3.23;;;;;;;9.97;100.00;98977.64;714813;1200;114360;-88
2022/01/03 05:23:25;;;;;;;7.58;4.10;;;;;;;9.87;100.00;98975.20;715228;1175;113338;-83
2022/01/03 05:38:27;;;;;;;11.67;5.23;;;;;;;9.82;100.00;99001.86;714129;1199;113902;-82
2022/01/03 05:53:32;;;;;;;7.88;4.40;;;;;;;9.72;100.00;98984.66;714354;1199;114991;-83
2022/01/03 06:08:34;;;;;;;6.90;2.93;;;;;;;9.62;100.00;98995.27;717457;1166;114377;-84
2022/01/03 06:23:36;;;;;;;5.48;3.00;;;;;;;9.51;100.00;99006.05;714334;1200;115037;-89
2022/01/03 06:38:39;;;;;;;16.13;13.88;;;;;;;9.48;100.00;99008.00;714390;1178;113702;-87
2022/01/03 06:53:42;;;;;;;8.10;5.00;;;;;;;9.51;100.00;99019.14;714376;1176;113763;-77
2022/01/03 07:08:44;;;;;;;15.80;8.50;;;;;;;9.40;100.00;99010.59;714209;1202;114683;-79
2022/01/03 07:23:47;;;;;;;9.10;5.43;;;;;;;9.40;100.00;99020.26;713803;1203;113473;-81
2022/01/03 07:38:50;;;;;;;11.47;4.97;;;;;;;9.38;100.00;99020.39;717245;1200;113656;-83
2022/01/03 07:53:52;;;;;;;48.57;21.13;;;;;;;9.48;100.00;99022.89;714256;1178;113814;-83
2022/01/03 08:08:59;;;;;;;196.70;92.40;;;;;;;9.67;100.00;99024.41;714689;1200;115871;-80
2022/01/03 08:24:01;;;;;;;124.63;59.60;;;;;;;9.82;100.00;99022.00;714516;1181;114050;-81
2022/01/03 08:39:04;;;;;;;56.90;28.83;;;;;;;9.69;100.00;99027.70;714536;1200;114493;-81
2022/01/03 08:54:06;;;;;;;29.35;15.00;;;;;;;9.87;100.00;99034.60;714053;1200;114353;-75
2022/01/03 09:09:09;;;;;;;53.17;22.77;;;;;;;9.99;100.00;99041.19;714320;1200;115183;-74
2022/01/03 09:24:42;;;;;;;48.00;23.13;;;;;;;10.02;100.00;99040.86;714388;1200;114966;-75
2022/01/03 09:39:46;;;;;;;40.80;17.93;;;;;;;10.05;100.00;99052.81;714740;1202;114460;-74
2022/01/03 09:54:49;;;;;;;93.90;30.97;;;;;;;10.07;100.00;99051.67;715200;1205;114571;-74
2022/01/03 10:09:54;;;;;;;83.13;42.90;;;;;;;10.24;100.00;99051.67;714243;1202;115195;-77
2022/01/03 10:24:59;;;;;;;24.68;12.58;;;;;;;10.40;100.00;99056.13;714318;1202;115699;-74
2022/01/03 10:40:25;;;;;;;51.37;21.07;;;;;;;10.32;100.00;99059.56;714680;1202;114932;-75
2022/01/03 10:55:35;;;;;;;54.43;25.28;;;;;;;10.30;100.00;99064.14;715049;1200;115148;-82
2022/01/03 11:10:45;;;;;;;17.80;8.70;;;;;;;10.10;100.00;99067.06;714005;1206;114424;-84
2022/01/03 11:25:51;;;;;;;150.38;42.43;;;;;;;9.91;100.00;99069.97;714198;1202;113851;-82
2022/01/03 11:40:55;;;;;;;33.60;15.88;;;;;;;9.80;100.00;99053.57;713648;1202;115198;-75
2022/01/03 11:56:01;;;;;;;68.80;28.00;;;;;;;9.91;100.00;99069.97;714389;1177;114282;-75
2022/01/03 12:11:28;;;;;;;105.23;30.70;;;;;;;9.91;100.00;99064.73;715760;1202;115410;-77
2022/01/03 12:26:31;;;;;;;123.13;42.60;;;;;;;9.83;100.00;99081.24;714141;1177;114027;-75
2022/01/03 12:41:47;;;;;;;81.00;33.15;;;;;;;9.78;100.00;99076.50;713991;1202;115178;-75
2022/01/03 12:56:49;;;;;;;64.07;23.37;;;;;;;9.73;100.00;99070.11;714420;1203;113769;-78
2022/01/03 13:11:56;;;;;;;79.28;32.58;;;;;;;9.79;100.00;99078.14;714293;1205;114195;-77
2022/01/03 13:27:05;;;;;;;72.28;30.40;;;;;;;9.75;100.00;99089.92;713986;1205;114093;-76
2022/01/03 13:42:13;;;;;;;43.33;16.73;;;;;;;9.63;100.00;99106.88;714247;1202;113867;-75
2022/01/03 13:57:18;;;;;;;38.53;15.87;;;;;;;9.58;100.00;99103.91;714267;1202;115356;-76
2022/01/03 14:12:20;;;;;;;52.68;21.13;;;;;;;9.53;100.00;99101.78;714132;1202;114303;-89
2022/01/03 14:27:27;;;;;;;37.00;13.85;;;;;;;9.59;100.00;99121.27;716548;1179;113819;-91
2022/01/03 14:42:34;;;;;;;52.23;25.30;;;;;;;9.61;100.00;99138.47;717396;1177;114588;-89
2022/01/03 14:57:47;;;;;;;168.98;50.85;;;;;;;9.60;100.00;99139.44;719271;1178;114371;-89
2022/01/03 15:12:53;;;;;;;106.53;43.63;;;;;;;9.60;100.00;99143.86;718275;1177;114009;-87
2022/01/03 15:28:00;;;;;;;58.80;20.50;;;;;;;9.63;100.00;99154.02;716932;1184;114483;-79
2022/01/03 15:43:02;;;;;;;15.48;8.18;;;;;;;9.57;100.00;99138.95;716466;1177;113867;-80
2022/01/03 15:58:06;;;;;;;18.17;8.37;;;;;;;9.61;100.00;99150.75;716538;1203;114376;-79
2022/01/03 16:13:08;;;;;;;20.25;8.30;;;;;;;9.63;100.00;99156.63;716149;1202;113810;-80
2022/01/03 16:28:10;;;;;;;16.78;7.10;;;;;;;9.63;100.00;99160.09;716474;1202;114948;-79
2022/01/03 16:43:13;;;;;;;17.25;7.50;;;;;;;9.53;100.00;99148.91;716397;1202;114478;-83
2022/01/03 16:58:16;;;;;;;15.53;7.00;;;;;;;9.30;100.00;99145.99;716521;1177;113817;-83
2022/01/03 17:13:18;;;;;;;21.00;9.50;;;;;;;9.21;100.00;99152.99;716519;1177;113826;-84
2022/01/03 17:28:22;;;;;;;22.10;8.50;;;;;;;9.20;100.00;99153.95;716732;1205;114123;-84
2022/01/03 17:43:25;;;;;;;16.80;8.60;;;;;;;9.15;100.00;99161.45;716626;1177;113375;-80
2022/01/03 17:58:27;;;;;;;21.30;8.30;;;;;;;9.03;100.00;99167.88;713867;1178;113571;-79
2022/01/03 18:13:30;;;;;;;26.20;12.70;;;;;;;9.03;100.00;99146.95;714075;1180;113480;-77
2022/01/03 18:28:32;;;;;;;25.53;9.90;;;;;;;9.02;100.00;99151.38;714154;1202;113954;-78
2022/01/03 18:43:34;;;;;;;30.97;14.03;;;;;;;9.11;100.00;99150.45;714613;1201;114358;-81
2022/01/03 18:58:37;;;;;;;28.73;11.03;;;;;;;9.09;100.00;99139.34;717027;1202;113694;-81
2022/01/03 19:13:39;;;;;;;21.93;7.60;;;;;;;8.80;100.00;99137.83;716183;1202;114326;-83
2022/01/03 19:28:42;;;;;;;18.03;7.53;;;;;;;8.51;100.00;99124.17;714461;1202;113489;-83
2022/01/03 19:43:50;;;;;;;18.98;6.60;;;;;;;8.21;100.00;99134.82;715869;1179;113563;-82
2022/01/03 19:58:52;;;;;;;20.30;7.28;;;;;;;8.04;100.00;99123.38;715108;1202;112984;-82
2022/01/03 20:13:55;;;;;;;20.33;8.80;;;;;;;7.83;100.00;99114.00;716636;1177;114027;-81
2022/01/03 20:28:58;;;;;;;18.63;7.00;;;;;;;7.66;100.00;99101.74;717235;1203;113316;-83
2022/01/03 20:44:00;;;;;;;11.33;5.27;;;;;;;7.77;100.00;99104.17;716269;1203;113490;-83
2022/01/03 20:59:04;;;;;;;16.48;5.90;;;;;;;7.85;100.00;99110.44;715419;1203;114250;-83
2022/01/03 21:14:07;;;;;;;15.70;6.70;;;;;;;8.04;100.00;99105.09;713726;1205;113495;-83
2022/01/03 21:29:10;;;;;;;27.53;11.88;;;;;;;8.03;100.00;99095.61;715816;1202;113332;-83
2022/01/03 21:44:13;;;;;;;46.90;26.20;;;;;;;7.92;100.00;99091.42;715587;1177;113521;-84
2022/01/03 21:59:15;;;;;;;50.45;26.38;;;;;;;7.87;100.00;99071.95;715387;1181;113642;-83
2022/01/03 22:14:20;;;;;;;109.23;49.67;;;;;;;7.77;100.00;99078.06;715477;1203;113550;-82
2022/01/03 22:29:23;;;;;;;26.37;12.67;;;;;;;7.76;100.00;99065.13;715445;1202;114080;-83
2022/01/03 22:44:25;;;;;;;34.95;18.13;;;;;;;7.84;100.00;99065.23;715856;1203;113706;-83
2022/01/03 22:59:27;;;;;;;33.43;14.78;;;;;;;7.94;100.00;99065.16;714819;1180;113736;-84
2022/01/03 23:14:30;;;;;;;21.43;11.90;;;;;;;8.08;100.00;99033.30;715670;1177;113667;-83
2022/01/03 23:29:32;;;;;;;20.15;8.45;;;;;;;8.15;100.00;99021.27;715927;1202;113777;-83
2022/01/03 23:44:35;;;;;;;19.03;6.75;;;;;;;8.18;100.00;99021.95;716071;1200;115036;-83
2022/01/03 23:59:39;;;;;;;19.08;6.70;;;;;;;8.28;100.00;99007.02;715956;1202;113899;-85
